Armadores I — SY8463 — position and weather

sailwx.info

Track history (hours):
 
Tides and Currents Weather Stations Pressure Air Temp Water Temp Dewpoint Dewpoint Depression Visibility Wind Speed Wind Dir Waves Ship Positions

Armadores I

Last reported at 2015-Aug-31 21:34 UTC. Time now 2015-Sep-01 08:04 UTC.
Position N 37°57' E 023°37'.

Length 32 m; draft 5.3 m.

Type: Tug. MMSI: 240694000.

Date/timePositionNaut miles runAvg speedWind from/ knotsBaromVisibWave heightAir tempDewpointWater temp
2015-Aug-31 21:34N 37°57' E 023°37'1 1.5
2015-Aug-31 20:33N 37°56' E 023°36'3 3.1
2015-Aug-31 19:33N 37°58' E 023°33'5 5.0
2015-Aug-31 18:33N 38°03' E 023°32'0 0.0
2015-Aug-31 17:33N 38°03' E 023°32'3 3.3
2015-Aug-31 16:33N 38°01' E 023°35'3 2.6
2015-Aug-31 15:29N 38°02' E 023°32'0 0.0
2015-Aug-31 14:33N 38°02' E 023°32'0 0.0
2015-Aug-31 13:33N 38°02' E 023°32'0 0.0
2015-Aug-31 12:33N 38°02' E 023°32'0 0.0
2015-Aug-31 11:33N 38°02' E 023°32'0 0.0
2015-Aug-31 10:33N 38°02' E 023°32'0 0.0
2015-Aug-31 09:33N 38°02' E 023°32'0 0.0
2015-Aug-31 08:33N 38°02' E 023°32'0 0.3
2015-Aug-31 07:33N 38°02' E 023°33'5 5.1
2015-Aug-31 06:33N 37°57' E 023°35'1 1.3
2015-Aug-31 05:34N 37°57' E 023°36'0 0.2
2015-Aug-31 04:33N 37°58' E 023°36'0 0.4
2015-Aug-31 03:33N 37°57' E 023°37'0 0.0
2015-Aug-30 17:18N 37°57' E 023°37'0 0.0
2015-Aug-30 16:33N 37°57' E 023°37'0 0.0
2015-Aug-30 15:33N 37°57' E 023°37'0 0.0
2015-Aug-30 14:33N 37°57' E 023°37'0 0.0
2015-Aug-30 13:33N 37°57' E 023°37'0 0.0
2015-Aug-30 12:33N 37°57' E 023°37'1 0.6
2015-Aug-30 11:33N 37°57' E 023°36'1 0.6
2015-Aug-30 10:33N 37°57' E 023°37'0 0.0
2015-Aug-30 09:33N 37°57' E 023°37'0 0.0
2015-Aug-30 08:34N 37°57' E 023°37'0 0.0
2015-Aug-30 07:33N 37°57' E 023°37'0 0.3
2015-Aug-30 06:33N 37°57' E 023°36'1 0.9
2015-Aug-30 05:33N 37°57' E 023°35'0 0.3
2015-Aug-30 04:33N 37°57' E 023°35'1 0.8
2015-Aug-30 03:33N 37°57' E 023°36'0 0.0
2015-Aug-28 13:09N 37°57' E 023°37'1 0.9
2015-Aug-28 12:33N 37°57' E 023°36'0 0.1
2015-Aug-28 11:33N 37°57' E 023°36'0 0.3
2015-Aug-28 10:33N 37°57' E 023°36'1 0.7
2015-Aug-28 09:33N 37°57' E 023°37'0 0.0
2015-Aug-28 08:33N 37°57' E 023°37'0 0.0
2015-Aug-28 07:33N 37°57' E 023°37'0 0.0
2015-Aug-28 06:33N 37°57' E 023°37'0 0.0
2015-Aug-28 05:33N 37°57' E 023°37'1 0.8
2015-Aug-28 04:33N 37°57' E 023°36'1 0.8
2015-Aug-28 03:33N 37°57' E 023°37'0 0.0
2015-Aug-27 10:34N 37°57' E 023°37'1 0.7
2015-Aug-27 09:33N 37°57' E 023°36'0 0.3
2015-Aug-27 08:33N 37°57' E 023°36'3 3.4
2015-Aug-27 07:33N 37°60' E 023°33'4 3.7
2015-Aug-27 06:34N 37°57' E 023°37'0 0.0
2015-Aug-27 05:33N 37°57' E 023°37'0 0.2
2015-Aug-27 04:33N 37°57' E 023°36'0 0.2
2015-Aug-27 03:33N 37°57' E 023°37'0 0.0
2015-Aug-27 02:33N 37°57' E 023°37'0 0.0
2015-Aug-27 01:34N 37°57' E 023°37'0 0.0
2015-Aug-27 00:33N 37°57' E 023°37'0 0.0
2015-Aug-26 23:34N 37°57' E 023°37'0 0.0
2015-Aug-26 22:33N 37°57' E 023°37'0 0.0
2015-Aug-26 21:34N 37°57' E 023°37'1 1.0
2015-Aug-26 20:33N 37°57' E 023°35'0 0.2
2015-Aug-26 19:33N 37°57' E 023°35'1 0.6
2015-Aug-26 18:33N 37°57' E 023°36'1 0.6
2015-Aug-26 17:33N 37°57' E 023°37'0 0.0
2015-Aug-26 16:33N 37°57' E 023°37'0 0.0
2015-Aug-26 15:33N 37°57' E 023°37'0 0.0
2015-Aug-26 14:33N 37°57' E 023°37'0 0.0
2015-Aug-26 13:33N 37°57' E 023°37'0 0.0
2015-Aug-26 12:33N 37°57' E 023°37'0 0.0
2015-Aug-26 11:33N 37°57' E 023°37'0 0.0
2015-Aug-26 10:33N 37°57' E 023°37'0 0.0
2015-Aug-26 09:34N 37°57' E 023°37'0 0.0
2015-Aug-26 08:33N 37°57' E 023°37'0 0.0
2015-Aug-26 07:16N 37°57' E 023°37'0 0.0
2015-Aug-26 06:31N 37°57' E 023°37'0 0.0
2015-Aug-26 05:33N 37°57' E 023°37'1 1.1
2015-Aug-26 04:33N 37°57' E 023°35'1 1.1
2015-Aug-26 03:33N 37°57' E 023°37'1 0.1
2015-Aug-25 15:33N 37°57' E 023°36'1 0.9
2015-Aug-25 14:33N 37°57' E 023°37'0 0.0
2015-Aug-25 13:34N 37°57' E 023°37'0 0.0
2015-Aug-25 12:33N 37°57' E 023°37'0 0.0
2015-Aug-25 11:33N 37°57' E 023°37'0 0.0
2015-Aug-25 10:33N 37°57' E 023°37'1 1.1
2015-Aug-25 09:34N 37°57' E 023°35'1 1.1
2015-Aug-25 08:33N 37°57' E 023°37'1 0.7
2015-Aug-25 07:33N 37°57' E 023°36'0 0.4
2015-Aug-25 06:34N 37°57' E 023°35'1 1.0
2015-Aug-25 05:33N 37°57' E 023°37'1 1.4
2015-Aug-25 04:33N 37°56' E 023°36'1 1.4
2015-Aug-25 03:33N 37°57' E 023°36'0 0.0
2015-Aug-24 10:33N 37°57' E 023°37'1 0.6
2015-Aug-24 09:33N 37°57' E 023°36'0 0.4
2015-Aug-24 08:33N 37°57' E 023°36'1 1.0
2015-Aug-24 07:34N 37°57' E 023°36'1 0.9
2015-Aug-24 06:34N 37°57' E 023°37'0 0.4
2015-Aug-24 05:34N 37°58' E 023°36'1 0.9
2015-Aug-24 04:33N 37°57' E 023°35'1 1.1
2015-Aug-24 03:34N 37°57' E 023°37'0 0.0
2015-Aug-24 02:33N 37°57' E 023°37'0 0.0
2015-Aug-24 01:33N 37°57' E 023°37'0 0.0
2015-Aug-24 00:34N 37°57' E 023°37'0 0.0
2015-Aug-23 23:33N 37°57' E 023°37'0 0.0
2015-Aug-23 22:33N 37°57' E 023°37'0 0.0
2015-Aug-23 21:33N 37°57' E 023°37'0 0.0
2015-Aug-23 20:33N 37°57' E 023°37'0 0.0
2015-Aug-23 19:33N 37°57' E 023°37'1 0.7
2015-Aug-23 18:33N 37°57' E 023°36'1 0.7
2015-Aug-23 17:33N 37°57' E 023°37'0 0.0
2015-Aug-23 16:34N 37°57' E 023°37'0 0.0
2015-Aug-23 15:33N 37°57' E 023°37'0 0.0
2015-Aug-23 14:33N 37°57' E 023°37'0 0.0
2015-Aug-23 13:33N 37°57' E 023°37'0 0.0
2015-Aug-23 12:34N 37°57' E 023°37'0 0.0
2015-Aug-23 11:33N 37°57' E 023°37'0 0.0
2015-Aug-23 10:34N 37°57' E 023°37'1 0.6
2015-Aug-23 09:34N 37°57' E 023°36'1 0.6
2015-Aug-23 08:33N 37°57' E 023°37'0 0.0
2015-Aug-23 07:33N 37°57' E 023°37'0 0.0
2015-Aug-23 06:33N 37°57' E 023°37'0 0.0
2015-Aug-23 05:34N 37°57' E 023°37'0 0.0
2015-Aug-23 04:33N 37°57' E 023°37'0 0.0
2015-Aug-23 03:33N 37°57' E 023°37'0 0.0
2015-Aug-23 02:33N 37°57' E 023°37'1 1.2
2015-Aug-23 01:33N 37°57' E 023°35'0 0.1
2015-Aug-23 00:34N 37°57' E 023°35'1 1.3
2015-Aug-22 23:33N 37°57' E 023°37'0 0.0
2015-Aug-22 22:33N 37°57' E 023°37'0 0.0
2015-Aug-22 21:33N 37°57' E 023°37'1 0.6
2015-Aug-22 20:33N 37°57' E 023°36'1 0.6
2015-Aug-22 19:33N 37°57' E 023°37'0 0.0
2015-Aug-22 18:33N 37°57' E 023°37'0 0.0
2015-Aug-22 17:33N 37°57' E 023°37'0 0.2
2015-Aug-22 16:33N 37°58' E 023°36'0 0.2
2015-Aug-22 15:33N 37°57' E 023°37'0 0.0
2015-Aug-22 14:33N 37°57' E 023°37'1 0.9
2015-Aug-22 13:33N 37°57' E 023°36'1 1.0
2015-Aug-22 12:33N 37°58' E 023°36'0 0.4
2015-Aug-22 11:33N 37°57' E 023°37'0 0.0
2015-Aug-22 10:33N 37°57' E 023°37'0 0.0
2015-Aug-22 09:33N 37°57' E 023°37'0 0.0
2015-Aug-22 08:33N 37°57' E 023°37'0 0.0
2015-Aug-22 07:33N 37°57' E 023°37'2 1.7
2015-Aug-22 06:33N 37°57' E 023°35'2 1.7
2015-Aug-22 05:33N 37°57' E 023°37'0 0.0
2015-Aug-22 04:33N 37°57' E 023°37'0 0.0
2015-Aug-22 03:33N 37°57' E 023°37'  
Track history (hours):
 
Tides and Currents Weather Stations Pressure Air Temp Water Temp Dewpoint Dewpoint Depression Visibility Wind Speed Wind Dir Waves Ship Positions

Armadores I

Last reported at 2015-Aug-31 21:34 UTC. Time now 2015-Sep-01 08:04 UTC.
Position N 37°57' E 023°37'.

Length 32 m; draft 5.3 m.

Type: Tug. MMSI: 240694000.

Date/timePositionNaut miles runAvg speedWind from/ knotsBaromVisibWave heightAir tempDewpointWater temp
2015-Aug-31 21:34N 37°57' E 023°37'1 1.5
2015-Aug-31 20:33N 37°56' E 023°36'3 3.1
2015-Aug-31 19:33N 37°58' E 023°33'5 5.0
2015-Aug-31 18:33N 38°03' E 023°32'0 0.0
2015-Aug-31 17:33N 38°03' E 023°32'3 3.3
2015-Aug-31 16:33N 38°01' E 023°35'3 2.6
2015-Aug-31 15:29N 38°02' E 023°32'0 0.0
2015-Aug-31 14:33N 38°02' E 023°32'0 0.0
2015-Aug-31 13:33N 38°02' E 023°32'0 0.0
2015-Aug-31 12:33N 38°02' E 023°32'0 0.0
2015-Aug-31 11:33N 38°02' E 023°32'0 0.0
2015-Aug-31 10:33N 38°02' E 023°32'0 0.0
2015-Aug-31 09:33N 38°02' E 023°32'0 0.0
2015-Aug-31 08:33N 38°02' E 023°32'0 0.3
2015-Aug-31 07:33N 38°02' E 023°33'5 5.1
2015-Aug-31 06:33N 37°57' E 023°35'1 1.3
2015-Aug-31 05:34N 37°57' E 023°36'0 0.2
2015-Aug-31 04:33N 37°58' E 023°36'0 0.4
2015-Aug-31 03:33N 37°57' E 023°37'0 0.0
2015-Aug-30 17:18N 37°57' E 023°37'0 0.0
2015-Aug-30 16:33N 37°57' E 023°37'0 0.0
2015-Aug-30 15:33N 37°57' E 023°37'0 0.0
2015-Aug-30 14:33N 37°57' E 023°37'0 0.0
2015-Aug-30 13:33N 37°57' E 023°37'0 0.0
2015-Aug-30 12:33N 37°57' E 023°37'1 0.6
2015-Aug-30 11:33N 37°57' E 023°36'1 0.6
2015-Aug-30 10:33N 37°57' E 023°37'0 0.0
2015-Aug-30 09:33N 37°57' E 023°37'0 0.0
2015-Aug-30 08:34N 37°57' E 023°37'0 0.0
2015-Aug-30 07:33N 37°57' E 023°37'0 0.3
2015-Aug-30 06:33N 37°57' E 023°36'1 0.9
2015-Aug-30 05:33N 37°57' E 023°35'0 0.3
2015-Aug-30 04:33N 37°57' E 023°35'1 0.8
2015-Aug-30 03:33N 37°57' E 023°36'0 0.0
2015-Aug-28 13:09N 37°57' E 023°37'1 0.9
2015-Aug-28 12:33N 37°57' E 023°36'0 0.1
2015-Aug-28 11:33N 37°57' E 023°36'0 0.3
2015-Aug-28 10:33N 37°57' E 023°36'1 0.7
2015-Aug-28 09:33N 37°57' E 023°37'0 0.0
2015-Aug-28 08:33N 37°57' E 023°37'0 0.0
2015-Aug-28 07:33N 37°57' E 023°37'0 0.0
2015-Aug-28 06:33N 37°57' E 023°37'0 0.0
2015-Aug-28 05:33N 37°57' E 023°37'1 0.8
2015-Aug-28 04:33N 37°57' E 023°36'1 0.8
2015-Aug-28 03:33N 37°57' E 023°37'0 0.0
2015-Aug-27 10:34N 37°57' E 023°37'1 0.7
2015-Aug-27 09:33N 37°57' E 023°36'0 0.3
2015-Aug-27 08:33N 37°57' E 023°36'3 3.4
2015-Aug-27 07:33N 37°60' E 023°33'4 3.7
2015-Aug-27 06:34N 37°57' E 023°37'0 0.0
2015-Aug-27 05:33N 37°57' E 023°37'0 0.2
2015-Aug-27 04:33N 37°57' E 023°36'0 0.2
2015-Aug-27 03:33N 37°57' E 023°37'0 0.0
2015-Aug-27 02:33N 37°57' E 023°37'0 0.0
2015-Aug-27 01:34N 37°57' E 023°37'0 0.0
2015-Aug-27 00:33N 37°57' E 023°37'0 0.0
2015-Aug-26 23:34N 37°57' E 023°37'0 0.0
2015-Aug-26 22:33N 37°57' E 023°37'0 0.0
2015-Aug-26 21:34N 37°57' E 023°37'1 1.0
2015-Aug-26 20:33N 37°57' E 023°35'0 0.2
2015-Aug-26 19:33N 37°57' E 023°35'1 0.6
2015-Aug-26 18:33N 37°57' E 023°36'1 0.6
2015-Aug-26 17:33N 37°57' E 023°37'0 0.0
2015-Aug-26 16:33N 37°57' E 023°37'0 0.0
2015-Aug-26 15:33N 37°57' E 023°37'0 0.0
2015-Aug-26 14:33N 37°57' E 023°37'0 0.0
2015-Aug-26 13:33N 37°57' E 023°37'0 0.0
2015-Aug-26 12:33N 37°57' E 023°37'0 0.0
2015-Aug-26 11:33N 37°57' E 023°37'0 0.0
2015-Aug-26 10:33N 37°57' E 023°37'0 0.0
2015-Aug-26 09:34N 37°57' E 023°37'0 0.0
2015-Aug-26 08:33N 37°57' E 023°37'0 0.0
2015-Aug-26 07:16N 37°57' E 023°37'0 0.0
2015-Aug-26 06:31N 37°57' E 023°37'0 0.0
2015-Aug-26 05:33N 37°57' E 023°37'1 1.1
2015-Aug-26 04:33N 37°57' E 023°35'1 1.1
2015-Aug-26 03:33N 37°57' E 023°37'1 0.1
2015-Aug-25 15:33N 37°57' E 023°36'1 0.9
2015-Aug-25 14:33N 37°57' E 023°37'0 0.0
2015-Aug-25 13:34N 37°57' E 023°37'0 0.0
2015-Aug-25 12:33N 37°57' E 023°37'0 0.0
2015-Aug-25 11:33N 37°57' E 023°37'0 0.0
2015-Aug-25 10:33N 37°57' E 023°37'1 1.1
2015-Aug-25 09:34N 37°57' E 023°35'1 1.1
2015-Aug-25 08:33N 37°57' E 023°37'1 0.7
2015-Aug-25 07:33N 37°57' E 023°36'0 0.4
2015-Aug-25 06:34N 37°57' E 023°35'1 1.0
2015-Aug-25 05:33N 37°57' E 023°37'1 1.4
2015-Aug-25 04:33N 37°56' E 023°36'1 1.4
2015-Aug-25 03:33N 37°57' E 023°36'0 0.0
2015-Aug-24 10:33N 37°57' E 023°37'1 0.6
2015-Aug-24 09:33N 37°57' E 023°36'0 0.4
2015-Aug-24 08:33N 37°57' E 023°36'1 1.0
2015-Aug-24 07:34N 37°57' E 023°36'1 0.9
2015-Aug-24 06:34N 37°57' E 023°37'0 0.4
2015-Aug-24 05:34N 37°58' E 023°36'1 0.9
2015-Aug-24 04:33N 37°57' E 023°35'1 1.1
2015-Aug-24 03:34N 37°57' E 023°37'0 0.0
2015-Aug-24 02:33N 37°57' E 023°37'0 0.0
2015-Aug-24 01:33N 37°57' E 023°37'0 0.0
2015-Aug-24 00:34N 37°57' E 023°37'0 0.0
2015-Aug-23 23:33N 37°57' E 023°37'0 0.0
2015-Aug-23 22:33N 37°57' E 023°37'0 0.0
2015-Aug-23 21:33N 37°57' E 023°37'0 0.0
2015-Aug-23 20:33N 37°57' E 023°37'0 0.0
2015-Aug-23 19:33N 37°57' E 023°37'1 0.7
2015-Aug-23 18:33N 37°57' E 023°36'1 0.7
2015-Aug-23 17:33N 37°57' E 023°37'0 0.0
2015-Aug-23 16:34N 37°57' E 023°37'0 0.0
2015-Aug-23 15:33N 37°57' E 023°37'0 0.0
2015-Aug-23 14:33N 37°57' E 023°37'0 0.0
2015-Aug-23 13:33N 37°57' E 023°37'0 0.0
2015-Aug-23 12:34N 37°57' E 023°37'0 0.0
2015-Aug-23 11:33N 37°57' E 023°37'0 0.0
2015-Aug-23 10:34N 37°57' E 023°37'1 0.6
2015-Aug-23 09:34N 37°57' E 023°36'1 0.6
2015-Aug-23 08:33N 37°57' E 023°37'0 0.0
2015-Aug-23 07:33N 37°57' E 023°37'0 0.0
2015-Aug-23 06:33N 37°57' E 023°37'0 0.0
2015-Aug-23 05:34N 37°57' E 023°37'0 0.0
2015-Aug-23 04:33N 37°57' E 023°37'0 0.0
2015-Aug-23 03:33N 37°57' E 023°37'0 0.0
2015-Aug-23 02:33N 37°57' E 023°37'1 1.2
2015-Aug-23 01:33N 37°57' E 023°35'0 0.1
2015-Aug-23 00:34N 37°57' E 023°35'1 1.3
2015-Aug-22 23:33N 37°57' E 023°37'0 0.0
2015-Aug-22 22:33N 37°57' E 023°37'0 0.0
2015-Aug-22 21:33N 37°57' E 023°37'1 0.6
2015-Aug-22 20:33N 37°57' E 023°36'1 0.6
2015-Aug-22 19:33N 37°57' E 023°37'0 0.0
2015-Aug-22 18:33N 37°57' E 023°37'0 0.0
2015-Aug-22 17:33N 37°57' E 023°37'0 0.2
2015-Aug-22 16:33N 37°58' E 023°36'0 0.2
2015-Aug-22 15:33N 37°57' E 023°37'0 0.0
2015-Aug-22 14:33N 37°57' E 023°37'1 0.9
2015-Aug-22 13:33N 37°57' E 023°36'1 1.0
2015-Aug-22 12:33N 37°58' E 023°36'0 0.4
2015-Aug-22 11:33N 37°57' E 023°37'0 0.0
2015-Aug-22 10:33N 37°57' E 023°37'0 0.0
2015-Aug-22 09:33N 37°57' E 023°37'0 0.0
2015-Aug-22 08:33N 37°57' E 023°37'0 0.0
2015-Aug-22 07:33N 37°57' E 023°37'2 1.7
2015-Aug-22 06:33N 37°57' E 023°35'2 1.7
2015-Aug-22 05:33N 37°57' E 023°37'0 0.0
2015-Aug-22 04:33N 37°57' E 023°37'0 0.0
2015-Aug-22 03:33N 37°57' E 023°37'  

Dump ship's entire track history